createdAt,value
2018-09-29T00:00:11.957Z,8.23
2018-09-29T00:02:40.578Z,6.17
2018-09-29T00:05:09.003Z,7.90
2018-09-29T00:07:37.447Z,11.57
2018-09-29T00:10:06.077Z,6.77
2018-09-29T00:12:34.465Z,9.53
2018-09-29T00:15:02.933Z,14.37
2018-09-29T00:17:31.485Z,6.50
2018-09-29T00:19:59.925Z,13.53
2018-09-29T00:22:28.556Z,9.53
2018-09-29T00:24:56.985Z,10.80
2018-09-29T00:27:25.416Z,9.30
2018-09-29T00:29:53.857Z,11.80
2018-09-29T00:32:22.293Z,7.13
2018-09-29T00:34:50.733Z,10.80
2018-09-29T00:37:19.176Z,9.33
2018-09-29T00:39:47.630Z,12.87
2018-09-29T00:42:16.031Z,9.83
2018-09-29T00:44:45.074Z,6.80
2018-09-29T00:47:13.549Z,10.67
2018-09-29T00:49:41.995Z,8.97
2018-09-29T00:52:10.442Z,7.17
2018-09-29T00:54:38.843Z,9.13
2018-09-29T00:57:07.525Z,11.37
2018-09-29T00:59:36.064Z,7.53
2018-09-29T01:02:04.516Z,8.33
2018-09-29T01:04:32.996Z,10.70
2018-09-29T01:07:01.539Z,7.80
2018-09-29T01:09:29.954Z,8.40
2018-09-29T01:11:58.378Z,9.90
2018-09-29T01:14:27.333Z,7.93
2018-09-29T01:16:55.853Z,6.97
2018-09-29T01:19:24.360Z,8.77
2018-09-29T01:21:52.947Z,9.47
2018-09-29T01:24:21.373Z,9.80
2018-09-29T01:26:49.866Z,11.83
2018-09-29T01:29:18.342Z,10.67
2018-09-29T01:31:46.756Z,7.17
2018-09-29T01:34:15.185Z,16.33
2018-09-29T01:36:43.618Z,10.80
2018-09-29T01:39:12.617Z,9.80
2018-09-29T01:41:41.056Z,7.93
2018-09-29T01:44:10.205Z,6.83
2018-09-29T01:46:38.862Z,9.50
2018-09-29T01:49:07.319Z,9.13
2018-09-29T01:51:35.782Z,10.87
2018-09-29T01:54:04.297Z,12.93
2018-09-29T01:56:32.816Z,8.10
2018-09-29T01:59:01.237Z,14.30
2018-09-29T02:01:29.693Z,13.63
2018-09-29T02:03:59.454Z,9.63
2018-09-29T02:06:27.981Z,8.23
2018-09-29T02:08:57.198Z,6.17
2018-09-29T02:11:25.636Z,13.23
2018-09-29T02:13:54.233Z,12.20
2018-09-29T02:16:22.648Z,7.47
2018-09-29T02:18:51.198Z,8.30
2018-09-29T02:21:19.652Z,11.37
2018-09-29T02:23:48.253Z,8.83
2018-09-29T02:26:16.683Z,12.77
2018-09-29T02:28:45.258Z,10.97
2018-09-29T02:31:13.710Z,10.97
2018-09-29T02:33:42.215Z,10.60
2018-09-29T02:36:10.662Z,10.30
2018-09-29T02:38:39.077Z,13.97
2018-09-29T02:41:07.666Z,12.47
2018-09-29T02:43:36.200Z,9.73
2018-09-29T02:46:04.638Z,12.23
2018-09-29T02:48:33.112Z,10.40
2018-09-29T02:51:01.559Z,10.80
2018-09-29T02:53:29.985Z,10.47
2018-09-29T02:55:58.401Z,9.20
2018-09-29T02:58:26.865Z,9.07
2018-09-29T03:00:55.625Z,14.13
2018-09-29T03:03:24.050Z,11.40
2018-09-29T03:05:53.673Z,12.47
2018-09-29T03:08:22.207Z,10.93
2018-09-29T03:10:50.732Z,12.03
2018-09-29T03:13:19.214Z,8.83
2018-09-29T03:15:47.733Z,13.33
2018-09-29T03:18:16.301Z,12.10
2018-09-29T03:20:44.773Z,12.13
2018-09-29T03:23:13.264Z,11.90
2018-09-29T03:25:41.681Z,13.60
2018-09-29T03:28:10.117Z,12.60
2018-09-29T03:30:38.589Z,12.17
2018-09-29T03:33:07.140Z,17.20
2018-09-29T03:35:35.592Z,11.57
2018-09-29T03:38:04.377Z,11.97
2018-09-29T03:40:32.799Z,10.23
2018-09-29T03:43:01.349Z,8.73
2018-09-29T03:45:30.444Z,12.20
2018-09-29T03:47:58.985Z,14.07
2018-09-29T03:50:27.572Z,11.27
2018-09-29T03:52:56.089Z,12.60
2018-09-29T03:55:24.511Z,13.13
2018-09-29T03:57:53.035Z,13.30
2018-09-29T04:00:21.489Z,10.27
2018-09-29T04:02:50.397Z,12.20
2018-09-29T04:05:18.828Z,11.77
2018-09-29T04:07:47.260Z,14.57
2018-09-29T04:10:15.767Z,9.07
2018-09-29T04:12:44.193Z,9.83
2018-09-29T04:15:12.614Z,12.17
2018-09-29T04:17:41.036Z,7.30
2018-09-29T04:20:11.002Z,10.87
2018-09-29T04:22:40.737Z,9.97
2018-09-29T04:25:09.195Z,8.23
2018-09-29T04:27:37.645Z,9.47
2018-09-29T04:30:06.306Z,9.07
2018-09-29T04:32:34.762Z,11.53
2018-09-29T04:35:03.250Z,12.60
2018-09-29T04:37:31.712Z,13.27
2018-09-29T04:40:00.137Z,9.63
2018-09-29T04:42:28.572Z,10.10
2018-09-29T04:44:57.016Z,9.63
2018-09-29T04:47:25.490Z,15.67
2018-09-29T04:49:53.945Z,10.60
2018-09-29T04:52:22.361Z,12.97
2018-09-29T04:54:50.840Z,12.17
2018-09-29T04:57:19.289Z,9.03
2018-09-29T04:59:47.724Z,13.73
2018-09-29T05:02:16.236Z,8.63
2018-09-29T05:04:44.668Z,9.43
2018-09-29T05:07:13.202Z,10.07
2018-09-29T05:09:41.660Z,12.70
2018-09-29T05:12:10.144Z,14.73
2018-09-29T05:14:38.660Z,10.87
2018-09-29T05:17:07.130Z,8.87
2018-09-29T05:19:35.546Z,10.50
2018-09-29T05:22:04.026Z,12.57
2018-09-29T05:24:32.643Z,12.33
2018-09-29T05:27:01.170Z,10.10
2018-09-29T05:29:29.577Z,10.80
2018-09-29T05:31:58.024Z,10.43
2018-09-29T05:34:26.473Z,10.53
2018-09-29T05:36:54.907Z,9.07
2018-09-29T05:39:23.344Z,14.63
2018-09-29T05:41:51.836Z,10.07
2018-09-29T05:44:20.330Z,9.90
2018-09-29T05:46:48.755Z,9.17
2018-09-29T05:49:17.168Z,11.37
2018-09-29T05:51:45.602Z,16.13
2018-09-29T05:54:14.062Z,10.67
2018-09-29T05:56:44.991Z,10.50
2018-09-29T05:59:14.160Z,11.93
2018-09-29T06:01:42.582Z,16.03
2018-09-29T06:04:11.337Z,12.17
2018-09-29T06:06:39.784Z,14.77
2018-09-29T06:09:09.170Z,19.63
2018-09-29T06:11:39.069Z,15.77
2018-09-29T06:14:07.601Z,10.70
2018-09-29T06:16:36.084Z,15.33
2018-09-29T06:19:04.565Z,12.90
2018-09-29T06:21:33.045Z,16.53
2018-09-29T06:24:01.476Z,9.97
2018-09-29T06:26:29.928Z,14.67
2018-09-29T06:28:58.362Z,15.57
2018-09-29T06:31:26.818Z,11.87
2018-09-29T06:33:55.278Z,29.30
2018-09-29T06:36:23.716Z,15.33
2018-09-29T06:38:52.164Z,11.07
2018-09-29T06:41:20.646Z,14.17
2018-09-29T06:43:49.141Z,11.27
2018-09-29T06:46:17.585Z,12.17
2018-09-29T06:48:46.058Z,13.90
2018-09-29T06:51:14.484Z,13.93
2018-09-29T06:53:43.018Z,15.40
2018-09-29T06:56:11.492Z,15.53
2018-09-29T06:58:40.133Z,13.70
2018-09-29T07:01:08.584Z,15.40
2018-09-29T07:03:37.025Z,10.70
2018-09-29T07:06:05.812Z,13.60
2018-09-29T07:08:34.342Z,11.53
2018-09-29T07:11:02.910Z,12.90
2018-09-29T07:13:31.385Z,12.33
2018-09-29T07:15:59.865Z,11.97
2018-09-29T07:18:28.471Z,13.63
2018-09-29T07:20:56.921Z,14.90
2018-09-29T07:23:25.615Z,11.17
2018-09-29T07:25:54.927Z,10.97
2018-09-29T07:28:23.404Z,11.43
2018-09-29T07:30:51.855Z,9.83
2018-09-29T07:33:20.679Z,11.93
2018-09-29T07:35:49.145Z,13.50
2018-09-29T07:38:17.625Z,12.97
2018-09-29T07:40:46.065Z,11.50
2018-09-29T07:43:14.532Z,12.90
2018-09-29T07:45:42.990Z,8.53
2018-09-29T07:48:11.445Z,10.07
2018-09-29T07:50:39.894Z,11.53
2018-09-29T07:53:08.353Z,9.57
2018-09-29T07:55:36.809Z,12.07
2018-09-29T07:58:05.393Z,15.30
2018-09-29T08:00:33.864Z,10.60
2018-09-29T08:03:02.352Z,16.43
2018-09-29T08:05:30.801Z,11.43
2018-09-29T08:07:59.282Z,12.83
2018-09-29T08:10:27.816Z,20.97
2018-09-29T08:12:56.385Z,12.60
2018-09-29T08:15:24.944Z,10.70
2018-09-29T08:17:53.439Z,13.63
2018-09-29T08:20:22.122Z,12.20
2018-09-29T08:22:50.584Z,11.60
2018-09-29T08:25:19.033Z,12.47
2018-09-29T08:27:47.572Z,13.13
2018-09-29T08:30:16.058Z,12.40
2018-09-29T08:32:44.644Z,9.00
2018-09-29T08:35:13.112Z,10.67
2018-09-29T08:37:41.635Z,15.60
2018-09-29T08:40:10.101Z,10.57
2018-09-29T08:42:38.552Z,16.07
2018-09-29T08:45:07.271Z,9.93
2018-09-29T08:47:35.770Z,9.60
2018-09-29T08:50:04.373Z,11.50
2018-09-29T08:52:32.867Z,10.07
2018-09-29T08:55:01.335Z,10.87
2018-09-29T08:57:29.797Z,11.27
2018-09-29T08:59:58.291Z,13.83
2018-09-29T09:02:26.817Z,8.47
2018-09-29T09:04:55.274Z,8.03
2018-09-29T09:07:23.783Z,8.67
2018-09-29T09:09:52.236Z,8.70
2018-09-29T09:12:20.703Z,9.00
2018-09-29T09:14:49.188Z,10.40
2018-09-29T09:17:17.642Z,8.07
2018-09-29T09:19:46.152Z,12.33
2018-09-29T09:22:14.699Z,12.23
2018-09-29T09:24:43.513Z,13.47
2018-09-29T09:27:12.065Z,7.63
2018-09-29T09:29:40.556Z,11.03
2018-09-29T09:32:08.998Z,14.50
2018-09-29T09:34:37.590Z,9.17
2018-09-29T09:37:06.046Z,9.37
2018-09-29T09:39:34.521Z,9.53
2018-09-29T09:42:02.975Z,7.67
2018-09-29T09:44:31.455Z,7.50
2018-09-29T09:47:00.014Z,9.20
2018-09-29T09:49:28.500Z,8.60
2018-09-29T09:51:56.969Z,8.43
2018-09-29T09:54:25.561Z,11.30
2018-09-29T09:56:54.006Z,6.97
2018-09-29T09:59:22.501Z,7.23
2018-09-29T10:01:56.407Z,5.43
2018-09-29T10:04:25.231Z,7.60
2018-09-29T10:06:53.704Z,9.00
2018-09-29T10:09:22.781Z,8.47
2018-09-29T10:11:51.707Z,9.20
2018-09-29T10:14:20.159Z,7.17
2018-09-29T10:16:48.681Z,10.80
2018-09-29T10:19:17.108Z,5.63
2018-09-29T10:21:45.593Z,8.13
2018-09-29T10:24:14.071Z,9.17
2018-09-29T10:26:42.513Z,7.00
2018-09-29T10:29:10.953Z,7.77
2018-09-29T10:31:39.424Z,5.37
2018-09-29T10:34:07.907Z,9.37
2018-09-29T10:36:36.369Z,7.17
2018-09-29T10:39:08.100Z,7.63
2018-09-29T10:41:36.757Z,8.27
2018-09-29T10:44:05.685Z,6.17
2018-09-29T10:46:34.166Z,7.93
2018-09-29T10:49:02.966Z,8.23
2018-09-29T10:51:31.488Z,8.03
2018-09-29T10:54:00.106Z,4.83
2018-09-29T10:56:28.763Z,8.67
2018-09-29T10:58:57.486Z,6.20
2018-09-29T11:01:26.165Z,6.40
2018-09-29T11:03:54.629Z,5.50
2018-09-29T11:06:23.078Z,5.77
2018-09-29T11:08:51.558Z,4.80
2018-09-29T11:11:20.019Z,6.23
2018-09-29T11:13:48.599Z,6.07
2018-09-29T11:16:17.088Z,6.00
2018-09-29T11:18:52.666Z,8.53
2018-09-29T11:21:21.127Z,6.87
2018-09-29T11:23:49.780Z,7.33
2018-09-29T11:26:18.233Z,7.73
2018-09-29T11:28:46.722Z,5.57
2018-09-29T11:31:15.177Z,10.90
2018-09-29T11:33:43.615Z,5.80
2018-09-29T11:36:12.218Z,9.57
2018-09-29T11:38:40.652Z,6.63
2018-09-29T11:41:09.120Z,10.03
2018-09-29T11:43:37.564Z,9.17
2018-09-29T11:46:06.074Z,4.80
2018-09-29T11:48:34.586Z,5.83
2018-09-29T11:51:03.090Z,8.07
2018-09-29T11:53:31.538Z,5.37
2018-09-29T11:56:00.046Z,6.53
2018-09-29T11:58:28.509Z,6.77
2018-09-29T12:00:57.011Z,5.40
2018-09-29T12:03:25.455Z,5.63
2018-09-29T12:05:53.937Z,10.57
2018-09-29T12:08:22.362Z,5.87
2018-09-29T12:10:50.794Z,6.70
2018-09-29T12:13:19.277Z,5.70
2018-09-29T12:15:47.822Z,4.20
2018-09-29T12:18:16.498Z,6.53
2018-09-29T12:20:44.995Z,6.17
2018-09-29T12:23:13.507Z,5.80
2018-09-29T12:25:42.057Z,7.27
2018-09-29T12:28:10.525Z,5.80
2018-09-29T12:30:38.978Z,7.33
2018-09-29T12:33:07.425Z,7.37
2018-09-29T12:35:35.905Z,5.53
2018-09-29T12:38:04.417Z,6.30
2018-09-29T12:40:32.863Z,5.77
2018-09-29T12:43:01.345Z,6.43
2018-09-29T12:45:29.827Z,6.47
2018-09-29T12:47:58.320Z,3.83
2018-09-29T12:50:26.829Z,3.33
2018-09-29T12:52:55.309Z,6.67
2018-09-29T12:55:23.866Z,5.57
2018-09-29T12:57:52.342Z,6.10
2018-09-29T13:00:21.004Z,6.70
2018-09-29T13:02:49.439Z,4.83
2018-09-29T13:05:17.974Z,5.00
2018-09-29T13:07:46.430Z,3.90
2018-09-29T13:10:14.896Z,6.03
2018-09-29T13:12:43.360Z,5.70
2018-09-29T13:15:11.914Z,6.60
2018-09-29T13:17:40.482Z,6.30
2018-09-29T13:20:09.031Z,8.37
2018-09-29T13:22:37.458Z,6.40
2018-09-29T13:25:05.925Z,7.30
2018-09-29T13:27:34.419Z,6.83
2018-09-29T13:30:02.859Z,5.20
2018-09-29T13:32:31.385Z,6.03
2018-09-29T13:34:59.867Z,7.80
2018-09-29T13:37:28.659Z,5.20
2018-09-29T13:39:57.419Z,4.53
2018-09-29T13:42:25.931Z,5.47
2018-09-29T13:44:54.731Z,6.07
2018-09-29T13:47:23.419Z,6.43
2018-09-29T13:49:51.954Z,6.63
2018-09-29T13:52:20.429Z,4.47
2018-09-29T13:54:48.858Z,4.17
2018-09-29T13:57:17.365Z,4.43
2018-09-29T13:59:45.872Z,4.57
2018-09-29T14:02:14.370Z,4.57
2018-09-29T14:04:42.824Z,5.63
2018-09-29T14:07:11.274Z,4.43
2018-09-29T14:09:39.711Z,4.03
2018-09-29T14:12:08.406Z,5.53
2018-09-29T14:14:36.829Z,5.20
2018-09-29T14:17:05.346Z,5.90
2018-09-29T14:19:33.832Z,6.47
2018-09-29T14:22:02.293Z,6.57
2018-09-29T14:24:31.438Z,5.63
2018-09-29T14:26:59.919Z,3.13
2018-09-29T14:29:28.363Z,3.87
2018-09-29T14:31:56.861Z,5.53
2018-09-29T14:34:25.474Z,4.27
2018-09-29T14:36:54.034Z,4.37
2018-09-29T14:39:22.501Z,4.80
2018-09-29T14:41:50.982Z,5.90
2018-09-29T14:44:19.444Z,6.93
2018-09-29T14:46:47.932Z,4.37
2018-09-29T14:49:16.448Z,5.90
2018-09-29T14:51:44.908Z,6.33
2018-09-29T14:54:13.428Z,6.33
2018-09-29T14:56:41.938Z,5.13
2018-09-29T14:59:10.459Z,4.67
2018-09-29T15:01:38.932Z,4.60
2018-09-29T15:04:07.522Z,4.50
2018-09-29T15:06:35.966Z,3.20
2018-09-29T15:09:07.442Z,3.87
2018-09-29T15:11:35.971Z,4.23
2018-09-29T15:14:04.486Z,5.87
2018-09-29T15:16:33.031Z,3.50
2018-09-29T15:19:01.518Z,8.37
2018-09-29T15:21:29.962Z,4.37
2018-09-29T15:23:58.405Z,5.77
2018-09-29T15:26:26.828Z,4.67
2018-09-29T15:28:55.403Z,4.67
2018-09-29T15:31:23.844Z,5.23
2018-09-29T15:33:52.279Z,5.23
2018-09-29T15:36:20.772Z,5.40
2018-09-29T15:38:49.224Z,2.87
2018-09-29T15:41:17.667Z,4.97
2018-09-29T15:43:46.102Z,3.47
2018-09-29T15:46:14.555Z,4.23
2018-09-29T15:48:43.072Z,5.30
2018-09-29T15:51:11.561Z,4.23
2018-09-29T15:53:40.043Z,4.37
2018-09-29T15:56:08.875Z,5.70
2018-09-29T15:58:37.448Z,6.30
2018-09-29T16:01:06.016Z,5.03
2018-09-29T16:03:34.467Z,5.80
2018-09-29T16:06:02.907Z,4.33
2018-09-29T16:08:31.401Z,2.60
2018-09-29T16:10:59.925Z,6.13
2018-09-29T16:13:28.383Z,4.27
2018-09-29T16:15:56.866Z,6.80
2018-09-29T16:18:25.393Z,7.13
2018-09-29T16:20:53.873Z,4.73
2018-09-29T16:23:22.357Z,4.03
2018-09-29T16:25:50.822Z,5.07
2018-09-29T16:28:19.277Z,6.07
2018-09-29T16:30:47.718Z,5.80
2018-09-29T16:33:16.188Z,7.50
2018-09-29T16:35:44.657Z,5.60
2018-09-29T16:38:13.153Z,6.00
2018-09-29T16:40:41.623Z,8.33
2018-09-29T16:43:10.073Z,5.80
2018-09-29T16:45:38.603Z,6.63
2018-09-29T16:48:07.057Z,4.80
2018-09-29T16:50:35.679Z,10.63
2018-09-29T16:53:04.154Z,6.73
2018-09-29T16:55:32.643Z,5.63
2018-09-29T16:58:01.091Z,7.00
2018-09-29T17:00:29.582Z,6.57
2018-09-29T17:02:58.072Z,11.93
2018-09-29T17:05:26.556Z,6.07
2018-09-29T17:07:55.022Z,3.60
2018-09-29T17:10:23.573Z,7.53
2018-09-29T17:12:52.074Z,5.23
2018-09-29T17:15:21.160Z,5.30
2018-09-29T17:17:49.589Z,6.17
2018-09-29T17:20:18.058Z,6.63
2018-09-29T17:22:46.538Z,4.83
2018-09-29T17:25:14.999Z,7.40
2018-09-29T17:27:43.488Z,10.30
2018-09-29T17:30:11.959Z,6.90
2018-09-29T17:32:40.437Z,4.23
2018-09-29T17:35:09.000Z,7.20
2018-09-29T17:37:37.482Z,2.50
2018-09-29T17:40:05.988Z,4.43
2018-09-29T17:42:34.674Z,5.47
2018-09-29T17:45:03.192Z,6.43
2018-09-29T17:47:31.721Z,5.97
2018-09-29T17:50:00.232Z,4.03
2018-09-29T17:52:28.762Z,4.40
2018-09-29T17:54:57.234Z,4.80
2018-09-29T17:57:25.682Z,5.50
2018-09-29T17:59:54.170Z,9.60
2018-09-29T18:02:22.626Z,8.67
2018-09-29T18:04:51.074Z,9.57
2018-09-29T18:07:19.534Z,10.10
2018-09-29T18:09:48.057Z,9.50
2018-09-29T18:12:16.587Z,6.40
2018-09-29T18:14:45.252Z,8.60
2018-09-29T18:17:13.914Z,5.23
2018-09-29T18:19:42.370Z,6.33
2018-09-29T18:22:10.802Z,6.20
2018-09-29T18:24:39.360Z,7.10
2018-09-29T18:27:07.916Z,6.30
2018-09-29T18:29:36.481Z,5.30
2018-09-29T18:32:04.935Z,4.97
2018-09-29T18:34:33.397Z,4.63
2018-09-29T18:37:01.897Z,7.53
2018-09-29T18:39:30.367Z,5.53
2018-09-29T18:41:58.921Z,5.00
2018-09-29T18:44:27.449Z,6.50
2018-09-29T18:46:55.923Z,6.77
2018-09-29T18:49:24.534Z,6.13
2018-09-29T18:51:53.208Z,5.43
2018-09-29T18:54:21.691Z,5.27
2018-09-29T18:56:50.178Z,5.63
2018-09-29T18:59:25.191Z,3.70
2018-09-29T19:01:53.657Z,6.03
2018-09-29T19:04:22.150Z,6.43
2018-09-29T19:06:50.662Z,5.07
2018-09-29T19:09:19.124Z,5.90
2018-09-29T19:11:47.636Z,6.10
2018-09-29T19:14:16.093Z,4.83
2018-09-29T19:16:44.562Z,4.83
2018-09-29T19:19:13.033Z,6.37
2018-09-29T19:21:41.523Z,4.07
2018-09-29T19:24:10.004Z,4.57
2018-09-29T19:26:38.476Z,6.33
2018-09-29T19:29:06.991Z,7.43
2018-09-29T19:31:35.451Z,7.23
2018-09-29T19:34:03.910Z,6.47
2018-09-29T19:36:32.372Z,5.07
2018-09-29T19:39:00.850Z,4.80
2018-09-29T19:41:29.306Z,7.23
2018-09-29T19:43:57.780Z,5.83
2018-09-29T19:46:26.271Z,4.27
2018-09-29T19:48:54.744Z,7.17
2018-09-29T19:51:23.318Z,5.20
2018-09-29T19:53:51.726Z,5.03
2018-09-29T19:56:20.181Z,8.43
2018-09-29T19:58:48.645Z,8.67
2018-09-29T20:01:17.138Z,7.33
2018-09-29T20:03:45.641Z,4.70
2018-09-29T20:06:14.242Z,5.80
2018-09-29T20:08:42.789Z,9.07
2018-09-29T20:11:11.261Z,6.13
2018-09-29T20:13:39.699Z,6.77
2018-09-29T20:16:08.239Z,4.87
2018-09-29T20:18:36.697Z,3.93
2018-09-29T20:21:05.191Z,7.63
2018-09-29T20:23:33.681Z,5.97
2018-09-29T20:26:02.154Z,11.30
2018-09-29T20:28:30.622Z,7.30
2018-09-29T20:30:59.099Z,5.93
2018-09-29T20:33:27.550Z,10.43
2018-09-29T20:35:56.026Z,6.07
2018-09-29T20:38:24.506Z,8.70
2018-09-29T20:40:52.950Z,6.53
2018-09-29T20:43:21.545Z,4.90
2018-09-29T20:45:50.123Z,5.73
2018-09-29T20:48:19.035Z,8.73
2018-09-29T20:50:47.605Z,6.97
2018-09-29T20:53:16.150Z,6.73
2018-09-29T20:55:44.593Z,5.93
2018-09-29T20:58:13.062Z,7.93
2018-09-29T21:00:41.582Z,6.93
2018-09-29T21:03:10.136Z,6.10
2018-09-29T21:05:38.591Z,5.77
2018-09-29T21:08:07.033Z,6.40
2018-09-29T21:10:35.645Z,5.60
2018-09-29T21:13:04.237Z,7.60
2018-09-29T21:15:32.926Z,7.50
2018-09-29T21:18:01.405Z,7.70
2018-09-29T21:20:29.989Z,8.17
2018-09-29T21:22:58.433Z,7.90
2018-09-29T21:25:26.886Z,7.80
2018-09-29T21:27:55.323Z,8.10
2018-09-29T21:30:23.748Z,6.97
2018-09-29T21:32:52.296Z,5.93
2018-09-29T21:35:21.462Z,7.77
2018-09-29T21:37:49.899Z,11.50
2018-09-29T21:40:18.385Z,10.50
2018-09-29T21:42:46.837Z,6.90
2018-09-29T21:45:15.327Z,8.07
2018-09-29T21:47:43.770Z,8.20
2018-09-29T21:50:12.274Z,7.60
2018-09-29T21:52:40.731Z,11.40
2018-09-29T21:55:09.185Z,8.80
2018-09-29T21:57:37.740Z,5.63
2018-09-29T22:00:06.562Z,8.07
2018-09-29T22:02:35.018Z,9.63
2018-09-29T22:05:03.549Z,9.23
2018-09-29T22:07:32.000Z,7.93
2018-09-29T22:10:00.452Z,7.67
2018-09-29T22:12:29.056Z,11.27
2018-09-29T22:14:57.536Z,7.10
2018-09-29T22:17:26.018Z,7.50
2018-09-29T22:19:54.603Z,10.93
2018-09-29T22:22:23.048Z,6.93
2018-09-29T22:24:51.466Z,7.40
2018-09-29T22:27:19.928Z,7.40
2018-09-29T22:29:48.375Z,6.03
2018-09-29T22:32:16.814Z,5.37
2018-09-29T22:34:45.342Z,8.87
2018-09-29T22:37:13.870Z,9.13
2018-09-29T22:39:42.308Z,8.13
2018-09-29T22:42:10.756Z,8.93
2018-09-29T22:44:39.202Z,7.93
2018-09-29T22:47:07.672Z,7.63
2018-09-29T22:49:36.118Z,8.77
2018-09-29T22:52:04.538Z,7.27
2018-09-29T22:54:32.986Z,9.00
2018-09-29T22:57:01.438Z,7.67
2018-09-29T22:59:29.887Z,6.73
2018-09-29T23:01:58.444Z,8.03
2018-09-29T23:04:26.968Z,7.83
2018-09-29T23:06:55.498Z,7.90
2018-09-29T23:09:23.953Z,6.00
2018-09-29T23:11:52.414Z,7.93
2018-09-29T23:14:20.966Z,10.70
2018-09-29T23:16:49.470Z,9.37
2018-09-29T23:19:17.930Z,7.13
2018-09-29T23:21:46.412Z,8.03
2018-09-29T23:24:14.848Z,11.53
2018-09-29T23:26:43.485Z,8.23
2018-09-29T23:29:11.946Z,9.00
2018-09-29T23:31:40.389Z,9.07
2018-09-29T23:34:08.861Z,8.07
2018-09-29T23:36:37.313Z,9.33
2018-09-29T23:39:08.165Z,8.17
2018-09-29T23:41:36.637Z,6.93
2018-09-29T23:44:05.099Z,8.33
2018-09-29T23:46:33.609Z,9.77
2018-09-29T23:49:02.094Z,9.53
2018-09-29T23:51:30.572Z,10.90
2018-09-29T23:53:59.167Z,9.40
2018-09-29T23:56:28.040Z,9.83
2018-09-29T23:58:56.503Z,11.97
